This is the latest recevied weather packets stored in our database for station/object DG2HSI-10. If no packets are shown the sender has not sent any weather packets the latest 10 day(s).
| Time | Temp. | Humidity | Pressure | Rain* | Wind** | Luminosity | Snow |
|---|---|---|---|---|---|---|---|
| 1777457716 | 26.11° C | 24% | 1030.3 hPa | - | - | - | - |
| 1777456516 | 26.11° C | 26% | 1030.3 hPa | - | - | - | - |
| 1777455316 | 22.78° C | 28% | 1030.4 hPa | - | - | - | - |
| 1777454115 | 17.22° C | 35% | 1030.3 hPa | - | - | - | - |
| 1777452915 | 17.22° C | 36% | 1030.3 hPa | - | - | - | - |
| 1777451715 | 15.56° C | 40% | 1030.3 hPa | - | - | - | - |
| 1777450515 | 13.89° C | 42% | 1030.3 hPa | - | - | - | - |
| 1777449315 | 12.22° C | 44% | 1030.3 hPa | - | - | - | - |
| 1777448115 | 11.11° C | 47% | 1030.1 hPa | - | - | - | - |
| 1777446914 | 10° C | 48% | 1029.9 hPa | - | - | - | - |
| 1777445714 | 9.44° C | 49% | 1029.8 hPa | - | - | - | - |
| 1777444514 | 8.33° C | 54% | 1029.6 hPa | - | - | - | - |
| 1777443314 | 7.22° C | 56% | 1029.4 hPa | - | - | - | - |
| 1777442114 | 6.67° C | 58% | 1029.2 hPa | - | - | - | - |
| 1777440914 | 5.56° C | 58% | 1028.9 hPa | - | - | - | - |
| 1777439714 | 5° C | 59% | 1028.9 hPa | - | - | - | - |
| 1777438513 | 5° C | 59% | 1028.7 hPa | - | - | - | - |
| 1777437313 | 4.44° C | 60% | 1028.4 hPa | - | - | - | - |
| 1777436113 | 5° C | 58% | 1028.4 hPa | - | - | - | - |
| 1777434913 | 4.44° C | 58% | 1028.4 hPa | - | - | - | - |
| 1777433713 | 5° C | 57% | 1028.4 hPa | - | - | - | - |
| 1777432513 | 5.56° C | 56% | 1028.1 hPa | - | - | - | - |
| 1777431312 | 5.56° C | 56% | 1028.1 hPa | - | - | - | - |
| 1777430112 | 5° C | 56% | 1028 hPa | - | - | - | - |
| 1777428912 | 5.56° C | 56% | 1028.1 hPa | - | - | - | - |
* Rain since midnight (hover to see other rain measurements)
** Current wind speed in m/s (hover to see current wind gust speed)